Time;durP1;ratioP1;P1;durP2;ratioP2;P2;SDS_P1;SDS_P2;PMS_P1;PMS_P2;Temp;Humidity;BMP_temperature;BMP_pressure;BME280_temperature;BME280_humidity;BME280_pressure;Samples;Min_cycle;Max_cycle;Signal;HPM_P1;HPM_P2
2022/03/01 00:01:24;;;;;;;33.72;17.08;;;4.60;99.90;;;;;;4912990;29;20026;-75
2022/03/01 00:03:50;;;;;;;33.25;16.77;;;4.60;99.90;;;;;;4912965;29;20529;-75
2022/03/01 00:06:15;;;;;;;32.03;16.67;;;4.70;99.90;;;;;;4912780;29;20043;-74
2022/03/01 00:08:41;;;;;;;33.45;16.70;;;4.70;99.90;;;;;;4913123;29;20091;-75
2022/03/01 00:11:06;;;;;;;36.17;17.95;;;4.70;99.90;;;;;;4913048;29;20378;-75
2022/03/01 00:13:32;;;;;;;32.50;17.77;;;4.70;99.90;;;;;;4912907;29;20417;-74
2022/03/01 00:15:58;;;;;;;35.38;17.65;;;4.80;99.90;;;;;;4913033;29;20040;-75
2022/03/01 00:18:23;;;;;;;31.83;17.75;;;4.80;99.90;;;;;;4912741;29;20035;-74
2022/03/01 00:20:49;;;;;;;30.38;17.35;;;4.80;99.90;;;;;;4912937;29;20478;-74
2022/03/01 00:23:14;;;;;;;34.30;18.30;;;4.80;99.90;;;;;;4912557;29;20474;-74
2022/03/01 00:25:40;;;;;;;35.20;18.67;;;4.80;99.90;;;;;;4912800;29;20425;-74
2022/03/01 00:28:05;;;;;;;35.30;18.92;;;4.80;99.90;;;;;;4913066;29;20107;-74
2022/03/01 00:30:31;;;;;;;32.58;17.95;;;4.80;99.90;;;;;;4912820;29;20059;-75
2022/03/01 00:32:56;;;;;;;38.33;18.75;;;4.80;99.90;;;;;;4912585;29;20032;-74
2022/03/01 00:35:22;;;;;;;35.17;18.50;;;4.80;99.90;;;;;;4912840;29;20033;-74
2022/03/01 00:37:48;;;;;;;36.95;19.10;;;4.80;99.90;;;;;;4912597;29;20032;-75
2022/03/01 00:40:13;;;;;;;34.30;19.08;;;4.80;99.90;;;;;;4912844;29;20028;-74
2022/03/01 00:42:39;;;;;;;30.70;17.70;;;4.80;99.90;;;;;;4912550;29;20462;-75
2022/03/01 00:45:05;;;;;;;31.90;18.23;;;4.80;99.90;;;;;;4912679;29;20027;-75
2022/03/01 00:47:30;;;;;;;32.05;17.25;;;4.80;99.90;;;;;;4913234;29;20485;-75
2022/03/01 00:49:57;;;;;;;35.22;17.63;;;4.80;99.90;;;;;;4916419;29;20060;-74
2022/03/01 00:52:23;;;;;;;33.13;17.40;;;4.80;99.90;;;;;;4916137;29;20027;-74
2022/03/01 00:54:49;;;;;;;30.92;16.77;;;4.80;99.90;;;;;;4916421;29;20052;-74
2022/03/01 00:57:14;;;;;;;32.22;17.15;;;4.80;99.90;;;;;;4916330;29;20036;-75
2022/03/01 00:59:40;;;;;;;31.80;17.35;;;4.80;99.90;;;;;;4916480;29;20020;-75
2022/03/01 01:02:06;;;;;;;29.48;16.83;;;4.80;99.90;;;;;;4916394;29;20031;-74
2022/03/01 01:04:31;;;;;;;32.15;17.17;;;4.80;99.90;;;;;;4916042;29;20091;-75
2022/03/01 01:06:57;;;;;;;31.92;17.73;;;4.80;99.90;;;;;;4916109;29;20115;-75
2022/03/01 01:09:22;;;;;;;32.03;17.85;;;4.80;99.90;;;;;;4915968;29;20036;-74
2022/03/01 01:11:48;;;;;;;29.88;17.23;;;4.90;99.90;;;;;;4916298;29;20020;-75
2022/03/01 01:14:14;;;;;;;33.17;17.17;;;4.90;99.90;;;;;;4914422;29;20456;-74
2022/03/01 01:16:39;;;;;;;33.78;17.00;;;4.90;99.90;;;;;;4915785;29;20039;-74
2022/03/01 01:19:05;;;;;;;38.83;18.02;;;4.90;99.90;;;;;;4915758;29;20055;-74
2022/03/01 01:24:15;;;;;;;32.90;17.90;;;5.00;99.90;;;;;;4915651;29;20034;-75
2022/03/01 01:26:40;;;;;;;32.80;16.80;;;5.00;99.90;;;;;;4915704;29;20044;-75
2022/03/01 01:29:06;;;;;;;31.23;17.77;;;5.10;99.90;;;;;;4915496;29;20054;-74
2022/03/01 01:31:31;;;;;;;29.98;17.00;;;5.10;99.90;;;;;;4915956;29;20143;-74
2022/03/01 01:33:57;;;;;;;35.63;17.40;;;5.20;99.90;;;;;;4915256;29;20142;-74
2022/03/01 01:36:26;;;;;;;32.90;17.80;;;5.20;99.90;;;;;;4915427;29;20028;-74
2022/03/01 01:38:52;;;;;;;35.08;18.15;;;5.20;99.90;;;;;;4915513;29;20039;-74
2022/03/01 01:41:18;;;;;;;30.80;18.05;;;5.30;99.90;;;;;;4915679;29;20095;-75
2022/03/01 01:43:43;;;;;;;36.40;18.10;;;5.30;99.90;;;;;;4915271;29;20055;-74
2022/03/01 01:46:09;;;;;;;33.88;18.20;;;5.30;99.90;;;;;;4915345;29;20028;-75
2022/03/01 01:48:35;;;;;;;37.03;17.40;;;5.30;99.90;;;;;;4915399;29;20032;-75
2022/03/01 01:51:00;;;;;;;35.22;17.25;;;5.30;99.90;;;;;;4915341;29;20573;-74
2022/03/01 01:53:26;;;;;;;32.47;17.58;;;5.40;99.90;;;;;;4915445;29;20044;-74
2022/03/01 01:55:52;;;;;;;35.03;18.52;;;5.40;99.90;;;;;;4915294;29;20063;-75
2022/03/01 01:58:18;;;;;;;37.00;18.33;;;5.40;99.90;;;;;;4915038;29;20159;-75
2022/03/01 02:00:44;;;;;;;35.13;18.58;;;5.30;99.90;;;;;;4914344;29;20513;-74
2022/03/01 02:03:09;;;;;;;37.45;18.50;;;5.30;99.90;;;;;;4914908;29;20545;-75
2022/03/01 02:05:35;;;;;;;40.28;19.17;;;5.30;99.90;;;;;;4915112;29;20137;-74
2022/03/01 02:08:00;;;;;;;33.45;18.25;;;5.30;99.90;;;;;;4914927;29;20130;-74
2022/03/01 02:10:27;;;;;;;34.08;17.60;;;5.30;99.90;;;;;;4913874;29;20102;-75
2022/03/01 02:12:53;;;;;;;35.58;18.02;;;5.30;99.90;;;;;;4915042;29;20502;-75
2022/03/01 02:15:18;;;;;;;33.05;18.85;;;5.30;99.90;;;;;;4913201;29;20147;-75
2022/03/01 02:17:44;;;;;;;34.35;18.15;;;5.30;99.90;;;;;;4914484;29;20073;-75
2022/03/01 02:20:21;;;;;;;33.35;17.63;;;5.30;99.90;;;;;;4913405;29;20376;-75
2022/03/01 02:22:52;;;;;;;34.95;18.25;;;5.30;99.90;;;;;;4914801;29;20032;-75
2022/03/01 02:25:18;;;;;;;30.30;17.92;;;5.30;99.90;;;;;;4914804;29;20156;-75
2022/03/01 02:27:44;;;;;;;31.42;17.60;;;5.30;99.90;;;;;;4914564;29;20110;-74
2022/03/01 02:30:10;;;;;;;31.45;16.88;;;5.30;99.90;;;;;;4914180;29;20032;-74
2022/03/01 02:32:36;;;;;;;32.03;17.40;;;5.30;99.90;;;;;;4914796;29;20765;-73
2022/03/01 02:35:03;;;;;;;34.05;17.45;;;5.30;99.90;;;;;;4914297;29;20046;-75
2022/03/01 02:37:29;;;;;;;34.58;18.70;;;5.30;99.90;;;;;;4914526;29;20398;-73
2022/03/01 02:39:54;;;;;;;30.67;16.75;;;5.30;99.90;;;;;;4914255;29;20047;-72
2022/03/01 02:42:21;;;;;;;33.92;17.23;;;5.30;99.90;;;;;;4914305;29;20031;-73
2022/03/01 02:44:48;;;;;;;33.38;17.83;;;5.30;99.90;;;;;;4913929;29;20087;-72
2022/03/01 02:47:15;;;;;;;31.75;17.48;;;5.30;99.90;;;;;;4914442;29;20032;-73
2022/03/01 02:49:40;;;;;;;35.60;18.10;;;5.30;99.90;;;;;;4914210;29;20056;-73
2022/03/01 02:52:06;;;;;;;33.90;17.50;;;5.30;99.90;;;;;;4914163;29;20596;-73
2022/03/01 02:54:32;;;;;;;36.58;17.83;;;5.30;99.90;;;;;;4913659;29;20522;-72
2022/03/01 02:57:00;;;;;;;36.90;17.27;;;5.30;99.90;;;;;;4914459;29;20068;-74
2022/03/01 02:59:27;;;;;;;34.70;17.77;;;5.30;99.90;;;;;;4912455;29;20119;-75
2022/03/01 03:01:53;;;;;;;34.35;17.42;;;5.30;99.90;;;;;;4913870;29;20028;-72
2022/03/01 03:04:18;;;;;;;37.95;18.05;;;5.30;99.90;;;;;;4913833;29;20024;-73
2022/03/01 03:06:44;;;;;;;31.85;17.23;;;5.30;99.90;;;;;;4913749;29;20154;-73
2022/03/01 03:09:10;;;;;;;34.95;17.33;;;5.30;99.90;;;;;;4913852;29;20028;-73
2022/03/01 03:11:36;;;;;;;30.45;16.65;;;5.30;99.90;;;;;;4912907;29;20050;-73
2022/03/01 03:14:01;;;;;;;31.10;17.50;;;5.30;99.90;;;;;;4913423;29;20028;-72
2022/03/01 03:16:27;;;;;;;31.52;17.25;;;5.30;99.90;;;;;;4913481;29;20028;-73
2022/03/01 03:18:53;;;;;;;30.90;16.88;;;5.30;99.90;;;;;;4913869;29;20039;-72
2022/03/01 03:21:19;;;;;;;33.28;16.33;;;5.30;99.90;;;;;;4913455;29;20494;-72
2022/03/01 03:23:45;;;;;;;35.88;17.17;;;5.30;99.90;;;;;;4913490;29;20115;-73
2022/03/01 03:26:11;;;;;;;31.70;16.08;;;5.30;99.90;;;;;;4912898;29;20039;-73
2022/03/01 03:28:36;;;;;;;31.45;16.48;;;5.30;99.90;;;;;;4913209;29;20039;-73
2022/03/01 03:31:02;;;;;;;30.75;16.08;;;5.30;99.90;;;;;;4913307;29;20024;-73
2022/03/01 03:33:28;;;;;;;29.95;16.23;;;5.30;99.90;;;;;;4913360;29;20038;-73
2022/03/01 03:35:54;;;;;;;29.73;16.30;;;5.30;99.90;;;;;;4913191;29;20111;-73
2022/03/01 03:38:20;;;;;;;30.13;16.60;;;5.30;99.90;;;;;;4913223;29;20099;-72
2022/03/01 03:40:46;;;;;;;28.33;15.55;;;5.30;99.90;;;;;;4913137;29;20036;-73
2022/03/01 03:43:11;;;;;;;30.05;17.23;;;5.40;99.90;;;;;;4913005;29;20035;-73
2022/03/01 03:45:37;;;;;;;30.80;17.10;;;5.40;99.90;;;;;;4913317;29;20490;-72
2022/03/01 03:48:03;;;;;;;31.58;17.48;;;5.40;99.90;;;;;;4913270;29;20035;-72
2022/03/01 03:50:29;;;;;;;30.95;17.83;;;5.50;99.90;;;;;;4913004;29;20510;-72
2022/03/01 03:52:55;;;;;;;30.67;17.25;;;5.50;99.90;;;;;;4913035;29;20032;-72
2022/03/01 03:55:20;;;;;;;32.25;17.27;;;5.50;99.90;;;;;;4912777;29;20048;-72
2022/03/01 03:57:46;;;;;;;29.85;16.92;;;5.50;99.90;;;;;;4913388;29;20027;-73
2022/03/01 04:00:15;;;;;;;30.80;17.52;;;5.60;99.90;;;;;;4912923;29;20036;-73
2022/03/01 04:02:43;;;;;;;33.63;17.75;;;5.60;99.90;;;;;;4911581;29;20036;-73
2022/03/01 04:05:10;;;;;;;31.50;18.10;;;5.60;99.90;;;;;;4912934;29;20115;-73
2022/03/01 04:07:35;;;;;;;29.67;17.73;;;5.60;99.90;;;;;;4912788;29;20043;-73
2022/03/01 04:10:01;;;;;;;31.85;18.08;;;5.60;99.90;;;;;;4912690;29;20455;-73
2022/03/01 04:12:26;;;;;;;30.67;17.65;;;5.60;99.90;;;;;;4912813;29;20056;-74
2022/03/01 04:14:52;;;;;;;34.60;18.27;;;5.60;99.90;;;;;;4912988;29;20039;-73
2022/03/01 04:17:17;;;;;;;31.08;17.85;;;5.60;99.90;;;;;;4912544;29;20028;-73
2022/03/01 04:19:43;;;;;;;32.90;18.42;;;5.60;99.90;;;;;;4913315;29;20036;-73
2022/03/01 04:22:08;;;;;;;32.10;17.20;;;5.70;99.90;;;;;;4912646;29;20435;-73
2022/03/01 04:24:34;;;;;;;29.70;17.48;;;5.70;99.90;;;;;;4916922;29;20119;-73
2022/03/01 04:26:59;;;;;;;35.10;18.08;;;5.70;99.90;;;;;;4916877;29;20036;-73
2022/03/01 04:29:25;;;;;;;31.83;18.00;;;5.70;99.90;;;;;;4916735;29;20510;-73
2022/03/01 04:31:51;;;;;;;36.05;18.08;;;5.70;99.90;;;;;;4916521;29;20078;-73
2022/03/01 04:34:16;;;;;;;36.08;18.15;;;5.70;99.90;;;;;;4915382;29;20076;-73
2022/03/01 04:36:42;;;;;;;30.08;16.80;;;5.70;99.90;;;;;;4916558;29;20040;-73
2022/03/01 04:39:07;;;;;;;31.92;17.60;;;5.70;99.90;;;;;;4916405;29;20110;-73
2022/03/01 04:41:33;;;;;;;33.42;17.48;;;5.70;99.90;;;;;;4915995;29;20069;-73
2022/03/01 04:43:58;;;;;;;31.13;17.10;;;5.70;99.90;;;;;;4916452;29;20039;-73
2022/03/01 04:46:24;;;;;;;31.33;17.92;;;5.70;99.90;;;;;;4916220;29;20035;-73
2022/03/01 04:48:50;;;;;;;36.63;18.50;;;5.70;99.90;;;;;;4916231;29;20024;-73
2022/03/01 04:51:21;;;;;;;29.48;16.60;;;5.70;99.90;;;;;;4916539;29;20036;-73
2022/03/01 04:53:50;;;;;;;31.75;17.13;;;5.70;99.90;;;;;;4916092;29;20486;-73
2022/03/01 04:56:16;;;;;;;30.52;17.42;;;5.70;99.90;;;;;;4916166;29;20039;-73
2022/03/01 04:58:42;;;;;;;29.77;16.58;;;5.80;99.90;;;;;;4917260;29;20111;-73
2022/03/01 05:01:08;;;;;;;33.45;16.85;;;5.70;99.90;;;;;;4916386;29;20127;-73
2022/03/01 05:03:33;;;;;;;30.80;16.85;;;5.80;99.90;;;;;;4915863;29;20568;-72
2022/03/01 05:05:59;;;;;;;32.65;17.42;;;5.80;99.90;;;;;;4915926;29;20091;-72
2022/03/01 05:08:30;;;;;;;30.73;17.30;;;5.80;99.90;;;;;;4915548;29;20095;-73
2022/03/01 05:10:58;;;;;;;31.48;16.80;;;5.80;99.90;;;;;;4916205;29;20282;-72
2022/03/01 05:13:24;;;;;;;34.33;18.05;;;5.80;99.90;;;;;;4915853;29;20036;-72
2022/03/01 05:15:49;;;;;;;28.25;16.83;;;5.80;99.90;;;;;;4916091;29;20028;-73
2022/03/01 05:18:15;;;;;;;32.75;17.17;;;5.80;99.90;;;;;;4915534;29;20028;-72
2022/03/01 05:20:40;;;;;;;32.72;17.50;;;5.80;99.90;;;;;;4915698;29;20024;-72
2022/03/01 05:23:06;;;;;;;30.88;17.65;;;5.80;99.90;;;;;;4915277;29;20064;-73
2022/03/01 05:25:33;;;;;;;31.25;17.13;;;5.80;99.90;;;;;;4915637;29;20446;-73
2022/03/01 05:27:58;;;;;;;31.50;17.60;;;5.80;99.90;;;;;;4915621;29;20036;-73
2022/03/01 05:30:25;;;;;;;33.03;16.73;;;5.80;99.90;;;;;;4915720;29;20043;-73
2022/03/01 05:32:51;;;;;;;29.80;16.73;;;5.70;99.90;;;;;;4915659;29;20418;-73
2022/03/01 05:35:24;;;;;;;32.63;16.70;;;5.80;99.90;;;;;;4914359;29;20071;-73
2022/03/01 05:37:52;;;;;;;29.35;17.05;;;5.80;99.90;;;;;;4915213;29;20040;-73
2022/03/01 05:40:18;;;;;;;29.65;17.00;;;5.80;99.90;;;;;;4915556;29;20024;-73
2022/03/01 05:42:44;;;;;;;30.35;16.45;;;5.80;99.90;;;;;;4915169;29;20059;-73
2022/03/01 05:45:11;;;;;;;29.10;17.00;;;5.80;99.90;;;;;;4915447;29;20024;-73
2022/03/01 05:47:38;;;;;;;32.20;16.17;;;5.80;99.90;;;;;;4915471;29;20442;-72
2022/03/01 05:50:04;;;;;;;28.33;16.45;;;5.80;99.90;;;;;;4915400;29;20358;-73
2022/03/01 05:52:31;;;;;;;33.20;17.27;;;5.80;99.90;;;;;;4915055;29;20029;-73
2022/03/01 05:54:56;;;;;;;32.55;16.33;;;5.80;99.90;;;;;;4915221;29;20395;-73
2022/03/01 05:57:27;;;;;;;26.42;16.13;;;5.80;99.90;;;;;;4915142;29;20028;-73
2022/03/01 05:59:53;;;;;;;30.48;16.50;;;5.80;99.90;;;;;;4915247;29;20032;-73
2022/03/01 06:02:19;;;;;;;30.25;15.93;;;5.80;99.90;;;;;;4915521;29;20450;-73
2022/03/01 06:04:44;;;;;;;27.13;15.65;;;5.80;99.90;;;;;;4914811;29;20465;-73
2022/03/01 06:07:10;;;;;;;30.38;16.95;;;5.80;99.90;;;;;;4914767;29;20028;-73
2022/03/01 06:09:36;;;;;;;34.75;16.75;;;5.80;99.90;;;;;;4911709;29;20043;-73
2022/03/01 06:12:01;;;;;;;30.27;17.02;;;5.80;99.90;;;;;;4913373;29;20027;-73
2022/03/01 06:14:27;;;;;;;33.58;18.05;;;5.80;99.90;;;;;;4913202;29;20031;-74
2022/03/01 06:16:52;;;;;;;31.48;17.88;;;5.80;99.90;;;;;;4913448;29;20111;-74
2022/03/01 06:19:18;;;;;;;31.17;17.48;;;5.80;99.90;;;;;;4913853;29;20842;-74
2022/03/01 06:21:43;;;;;;;28.77;16.85;;;5.80;99.90;;;;;;4914681;29;20028;-73
2022/03/01 06:24:09;;;;;;;32.83;17.05;;;5.80;99.90;;;;;;4912771;29;20032;-74
2022/03/01 06:26:35;;;;;;;33.90;17.95;;;5.80;99.90;;;;;;4912485;29;20036;-74
2022/03/01 06:29:00;;;;;;;31.98;16.92;;;5.80;99.90;;;;;;4912882;29;20157;-74
2022/03/01 06:31:26;;;;;;;31.88;17.40;;;5.80;99.90;;;;;;4912108;29;20036;-74
2022/03/01 06:33:52;;;;;;;31.55;16.98;;;5.80;99.90;;;;;;4912713;29;20355;-74
2022/03/01 06:36:17;;;;;;;31.25;17.85;;;5.80;99.90;;;;;;4912775;29;20445;-74
2022/03/01 06:38:43;;;;;;;31.45;17.05;;;5.80;99.90;;;;;;4912735;29;20020;-73
2022/03/01 06:41:08;;;;;;;29.52;16.77;;;5.80;99.90;;;;;;4912884;29;20095;-74
2022/03/01 06:43:34;;;;;;;30.77;17.05;;;5.80;99.90;;;;;;4912807;29;20041;-74
2022/03/01 06:46:00;;;;;;;30.02;16.80;;;5.80;99.90;;;;;;4914322;29;20024;-73
2022/03/01 06:48:25;;;;;;;31.27;17.02;;;5.80;99.90;;;;;;4913879;29;20115;-74
2022/03/01 06:50:51;;;;;;;30.15;16.83;;;5.80;99.90;;;;;;4915863;29;20028;-74
2022/03/01 06:53:17;;;;;;;32.13;16.80;;;5.80;99.90;;;;;;4911683;29;20031;-74
2022/03/01 06:55:43;;;;;;;32.22;16.85;;;5.90;99.90;;;;;;4912016;29;20518;-74
2022/03/01 06:58:10;;;;;;;28.73;16.83;;;5.90;99.90;;;;;;4913753;29;20107;-74
2022/03/01 07:00:36;;;;;;;31.15;16.52;;;5.90;99.90;;;;;;4914190;29;20116;-74
2022/03/01 07:03:01;;;;;;;33.55;16.70;;;5.90;99.90;;;;;;4912651;29;20036;-74
2022/03/01 07:05:27;;;;;;;30.00;16.33;;;5.90;99.90;;;;;;4916554;29;20051;-74
2022/03/01 07:07:52;;;;;;;33.67;16.90;;;5.90;99.90;;;;;;4914027;29;20036;-74
2022/03/01 07:10:18;;;;;;;27.75;15.57;;;5.90;99.90;;;;;;4915410;29;20422;-73
2022/03/01 07:12:45;;;;;;;32.22;16.50;;;5.90;99.90;;;;;;4913763;29;20534;-73
2022/03/01 07:15:11;;;;;;;29.08;16.48;;;6.00;99.90;;;;;;4918899;29;20047;-75
2022/03/01 07:17:37;;;;;;;31.05;16.00;;;6.00;99.90;;;;;;4932425;29;20023;-73
2022/03/01 07:20:04;;;;;;;36.72;17.00;;;6.00;99.90;;;;;;4926723;29;20078;-73
2022/03/01 07:22:30;;;;;;;30.98;16.08;;;6.00;99.90;;;;;;4914794;29;20028;-75
2022/03/01 07:24:55;;;;;;;34.13;17.15;;;6.00;99.90;;;;;;4923829;29;20439;-73
2022/03/01 07:27:21;;;;;;;32.28;16.00;;;6.10;99.90;;;;;;4932053;29;20035;-73
2022/03/01 07:29:46;;;;;;;32.58;16.50;;;6.10;99.90;;;;;;4930727;29;20087;-73
2022/03/01 07:32:12;;;;;;;35.03;16.60;;;6.10;99.90;;;;;;4912774;29;20031;-73
2022/03/01 07:34:38;;;;;;;26.42;15.90;;;6.10;99.90;;;;;;4909681;29;20020;-73
2022/03/01 07:37:05;;;;;;;31.38;16.45;;;6.20;99.90;;;;;;4907654;29;20467;-73
2022/03/01 07:39:31;;;;;;;35.63;16.88;;;6.20;99.90;;;;;;4908335;29;20035;-73
2022/03/01 07:41:57;;;;;;;29.15;16.25;;;6.30;99.90;;;;;;4910839;29;20028;-73
2022/03/01 07:44:22;;;;;;;33.13;16.02;;;6.30;99.90;;;;;;4910476;29;20020;-73
2022/03/01 07:46:48;;;;;;;29.85;15.45;;;6.30;99.90;;;;;;4909977;29;20039;-73
2022/03/01 07:49:13;;;;;;;31.92;16.63;;;6.30;99.90;;;;;;4910099;29;20454;-72
2022/03/01 07:51:39;;;;;;;33.00;16.52;;;6.40;99.90;;;;;;4911585;29;20072;-72
2022/03/01 07:54:04;;;;;;;31.30;16.85;;;6.40;99.90;;;;;;4912234;29;20056;-73
2022/03/01 07:56:30;;;;;;;30.10;16.27;;;6.50;99.90;;;;;;4909738;29;20032;-72
2022/03/01 07:58:56;;;;;;;33.25;17.02;;;6.50;99.90;;;;;;4910677;29;20099;-72
2022/03/01 08:01:22;;;;;;;32.70;17.00;;;6.50;99.90;;;;;;4907824;29;20032;-72
2022/03/01 08:03:49;;;;;;;28.52;16.75;;;6.50;99.90;;;;;;4910645;29;20031;-73
2022/03/01 08:06:15;;;;;;;32.90;16.50;;;6.50;99.90;;;;;;4909246;29;20498;-72
2022/03/01 08:08:41;;;;;;;30.65;15.80;;;6.60;99.90;;;;;;4910927;29;20024;-72
2022/03/01 08:11:06;;;;;;;28.33;15.95;;;6.60;99.90;;;;;;4912395;29;20025;-73
2022/03/01 08:13:33;;;;;;;32.20;16.15;;;6.60;99.90;;;;;;4909308;29;20024;-72
2022/03/01 08:15:59;;;;;;;31.30;16.10;;;6.60;99.90;;;;;;4908969;29;20032;-73
2022/03/01 08:18:25;;;;;;;30.65;15.80;;;6.60;99.90;;;;;;4908741;29;20565;-73
2022/03/01 08:20:51;;;;;;;31.17;16.98;;;6.70;99.90;;;;;;4909242;29;20135;-72
2022/03/01 08:23:17;;;;;;;30.83;16.58;;;6.60;99.90;;;;;;4908409;29;20725;-73
2022/03/01 08:25:43;;;;;;;34.63;17.23;;;6.60;99.90;;;;;;4908757;29;20033;-73
2022/03/01 08:28:08;;;;;;;31.08;16.35;;;6.60;99.90;;;;;;4908624;29;20028;-73
2022/03/01 08:30:35;;;;;;;32.97;17.45;;;6.60;99.90;;;;;;4908500;29;20546;-74
2022/03/01 08:33:02;;;;;;;33.30;17.38;;;6.60;99.90;;;;;;4910002;29;20451;-73
2022/03/01 08:35:28;;;;;;;30.73;16.83;;;6.60;99.90;;;;;;4910554;29;20028;-73
2022/03/01 08:37:54;;;;;;;33.40;17.48;;;6.60;99.90;;;;;;4907875;29;20032;-74
2022/03/01 08:40:22;;;;;;;27.35;16.17;;;6.70;99.90;;;;;;4907011;29;20034;-74
2022/03/01 08:42:50;;;;;;;31.45;17.20;;;6.70;99.90;;;;;;4908705;29;20024;-73
2022/03/01 08:45:16;;;;;;;34.00;17.60;;;6.70;99.90;;;;;;4907974;29;20036;-75
2022/03/01 08:47:41;;;;;;;31.15;17.17;;;6.70;99.90;;;;;;4905828;29;20502;-75
2022/03/01 08:50:08;;;;;;;31.75;17.50;;;6.70;99.90;;;;;;4905155;29;20072;-75
2022/03/01 08:52:33;;;;;;;31.77;17.58;;;6.70;99.90;;;;;;4915641;29;20024;-74
2022/03/01 08:54:59;;;;;;;30.48;17.95;;;6.70;99.90;;;;;;4907483;29;20131;-75
2022/03/01 08:57:24;;;;;;;37.35;18.55;;;6.80;99.90;;;;;;4906587;29;20044;-75
2022/03/01 08:59:50;;;;;;;32.63;17.95;;;6.80;99.90;;;;;;4906642;29;20107;-75
2022/03/01 09:02:17;;;;;;;30.60;17.00;;;6.80;99.90;;;;;;4906598;29;20024;-75
2022/03/01 09:04:44;;;;;;;31.90;17.65;;;6.80;99.90;;;;;;4908467;29;20024;-75
2022/03/01 09:07:10;;;;;;;35.00;18.23;;;6.80;99.90;;;;;;4906293;29;20028;-75
2022/03/01 09:09:35;;;;;;;32.75;18.13;;;6.80;99.90;;;;;;4911282;29;20032;-75
2022/03/01 09:12:01;;;;;;;37.42;17.77;;;6.80;99.90;;;;;;4911924;29;20056;-75
2022/03/01 09:14:27;;;;;;;36.83;17.77;;;6.80;99.90;;;;;;4911585;29;20341;-75
2022/03/01 09:16:53;;;;;;;35.10;18.10;;;6.80;99.90;;;;;;4912188;29;20032;-75
2022/03/01 09:19:18;;;;;;;31.77;17.92;;;6.80;99.90;;;;;;4912516;29;20043;-75
2022/03/01 09:21:44;;;;;;;36.20;18.40;;;6.80;99.90;;;;;;4911278;29;20372;-75
2022/03/01 09:24:09;;;;;;;29.63;18.10;;;6.80;99.90;;;;;;4911388;29;20705;-76
2022/03/01 09:26:35;;;;;;;33.97;18.83;;;6.80;99.90;;;;;;4912041;29;20036;-75
2022/03/01 09:29:01;;;;;;;32.22;18.60;;;6.80;99.90;;;;;;4909534;29;20198;-74
2022/03/01 09:31:27;;;;;;;34.42;18.38;;;6.80;99.90;;;;;;4909031;29;20335;-75
2022/03/01 09:33:52;;;;;;;33.85;18.50;;;6.80;99.90;;;;;;4910685;29;20228;-75
2022/03/01 09:36:18;;;;;;;37.22;18.92;;;6.80;99.90;;;;;;4902533;29;20047;-76
2022/03/01 09:38:44;;;;;;;39.65;19.27;;;6.80;99.90;;;;;;4907289;29;20515;-75
2022/03/01 09:41:14;;;;;;;33.08;19.67;;;6.90;99.90;;;;;;4910339;29;20115;-75
2022/03/01 09:43:41;;;;;;;33.83;18.63;;;6.80;99.90;;;;;;4911630;29;20084;-75
2022/03/01 09:46:09;;;;;;;35.42;18.75;;;6.80;99.90;;;;;;4911662;29;20754;-75
2022/03/01 09:48:36;;;;;;;37.67;20.73;;;6.80;99.90;;;;;;4911949;29;20546;-74
2022/03/01 09:51:03;;;;;;;40.78;19.48;;;6.80;99.90;;;;;;4911689;29;20013;-75
2022/03/01 09:53:30;;;;;;;35.70;20.10;;;6.80;99.90;;;;;;4912042;29;20028;-75
2022/03/01 09:55:55;;;;;;;36.60;19.92;;;6.80;99.90;;;;;;4911983;29;20040;-75
2022/03/01 09:58:22;;;;;;;35.55;20.08;;;6.80;99.90;;;;;;4911339;29;20028;-75
2022/03/01 10:00:48;;;;;;;41.38;21.23;;;6.70;99.90;;;;;;4910976;29;20036;-75
2022/03/01 10:03:17;;;;;;;42.53;21.88;;;6.80;99.90;;;;;;4912203;29;20024;-75
2022/03/01 10:05:43;;;;;;;39.72;20.88;;;6.70;99.90;;;;;;4912367;29;20199;-75
2022/03/01 10:08:15;;;;;;;38.08;19.98;;;6.80;99.90;;;;;;4911682;29;20047;-75
2022/03/01 10:10:52;;;;;;;37.05;19.95;;;6.70;99.90;;;;;;4914115;29;20117;-75
2022/03/01 10:13:27;;;;;;;36.03;20.88;;;6.70;99.90;;;;;;4912690;29;20038;-75
2022/03/01 10:16:09;;;;;;;41.55;22.02;;;6.70;99.90;;;;;;4912012;29;20028;-76
2022/03/01 10:18:41;;;;;;;41.70;21.35;;;6.80;99.90;;;;;;4910476;29;20079;-75
2022/03/01 10:21:10;;;;;;;40.60;22.15;;;6.70;99.90;;;;;;4910531;29;20108;-75
2022/03/01 10:23:38;;;;;;;37.33;21.65;;;6.70;99.90;;;;;;4912108;29;20087;-76
2022/03/01 10:26:18;;;;;;;39.50;21.75;;;6.80;99.90;;;;;;4913199;29;20024;-76
2022/03/01 10:28:45;;;;;;;37.67;20.75;;;6.80;99.90;;;;;;4909206;29;20056;-75
2022/03/01 10:31:22;;;;;;;38.88;21.40;;;6.80;99.90;;;;;;4910313;29;20031;-75
2022/03/01 10:34:04;;;;;;;38.25;21.95;;;6.80;99.90;;;;;;4912230;29;20211;-75
2022/03/01 10:36:29;;;;;;;37.00;21.73;;;6.80;99.90;;;;;;4910767;29;20046;-76
2022/03/01 10:38:57;;;;;;;38.53;21.63;;;6.80;99.90;;;;;;4911556;29;20036;-75
2022/03/01 10:41:26;;;;;;;38.30;21.20;;;6.80;99.90;;;;;;4910933;29;20126;-76
2022/03/01 10:43:54;;;;;;;36.80;20.83;;;6.90;99.90;;;;;;4910435;29;20537;-76
2022/03/01 10:46:19;;;;;;;39.03;22.08;;;6.90;99.90;;;;;;4910251;29;20522;-76
2022/03/01 10:48:45;;;;;;;36.60;20.35;;;6.80;99.90;;;;;;4914728;29;20032;-75
2022/03/01 10:51:11;;;;;;;39.10;21.50;;;6.90;99.90;;;;;;4909868;29;20047;-74
2022/03/01 10:53:42;;;;;;;39.00;21.42;;;6.80;99.90;;;;;;4909619;29;20016;-74
2022/03/01 10:56:10;;;;;;;38.92;21.73;;;6.90;99.90;;;;;;4910357;29;20505;-74
2022/03/01 10:58:37;;;;;;;39.63;21.20;;;6.90;99.90;;;;;;4909681;29;20068;-74
2022/03/01 11:01:04;;;;;;;39.03;21.83;;;6.90;99.90;;;;;;4909439;29;20021;-74
2022/03/01 11:03:30;;;;;;;38.65;21.50;;;7.00;99.90;;;;;;4906651;29;20331;-75
2022/03/01 11:05:57;;;;;;;41.47;22.58;;;7.00;99.90;;;;;;4907603;29;20024;-75
2022/03/01 11:08:34;;;;;;;35.75;20.58;;;7.10;99.90;;;;;;4910646;29;20032;-74
2022/03/01 11:11:01;;;;;;;39.63;20.77;;;7.20;99.90;;;;;;4912344;29;20016;-74
2022/03/01 11:13:27;;;;;;;37.65;20.45;;;7.30;99.90;;;;;;4912002;29;20319;-74
2022/03/01 11:16:14;;;;;;;36.80;20.90;;;7.40;99.90;;;;;;4912415;29;20024;-75
2022/03/01 11:19:01;;;;;;;35.85;20.70;;;7.50;99.90;;;;;;4914165;29;20042;-75
2022/03/01 11:21:27;;;;;;;40.25;21.45;;;7.50;99.90;;;;;;4912208;29;20016;-75
2022/03/01 11:23:54;;;;;;;37.80;21.73;;;7.60;99.90;;;;;;4910451;29;20056;-75
2022/03/01 11:26:20;;;;;;;36.10;21.13;;;7.70;99.90;;;;;;4913053;29;20518;-75
2022/03/01 11:28:54;;;;;;;35.58;20.52;;;7.90;99.90;;;;;;4913816;29;20112;-75
2022/03/01 11:31:27;;;;;;;36.30;20.27;;;8.00;99.90;;;;;;4909506;29;20016;-75
2022/03/01 11:34:13;;;;;;;35.30;19.90;;;8.10;99.90;;;;;;4912365;29;20020;-75
2022/03/01 11:36:47;;;;;;;36.67;20.48;;;8.20;99.90;;;;;;4913343;29;20354;-76
2022/03/01 11:39:18;;;;;;;37.20;20.67;;;8.30;99.90;;;;;;4911533;29;20027;-75
2022/03/01 11:41:52;;;;;;;35.50;20.90;;;8.50;99.90;;;;;;4911450;29;20054;-75
2022/03/01 11:44:24;;;;;;;34.67;20.60;;;8.60;99.90;;;;;;4923509;29;20055;-75
2022/03/01 11:46:51;;;;;;;36.10;20.73;;;8.60;99.90;;;;;;4914904;29;20111;-74
2022/03/01 11:49:19;;;;;;;39.95;20.67;;;8.70;99.90;;;;;;4911269;29;20021;-75
2022/03/01 11:51:53;;;;;;;34.45;20.13;;;8.70;99.90;;;;;;4910841;29;20040;-75
2022/03/01 11:54:29;;;;;;;38.20;20.45;;;8.70;99.90;;;;;;4914588;29;20111;-75
2022/03/01 11:56:57;;;;;;;38.17;20.45;;;8.70;99.90;;;;;;4909864;29;20410;-75
2022/03/01 11:59:24;;;;;;;38.40;20.92;;;8.80;99.90;;;;;;4914121;29;20020;-75
2022/03/01 12:01:54;;;;;;;34.50;20.63;;;8.80;99.90;;;;;;4913192;29;20024;-75
2022/03/01 12:04:22;;;;;;;38.05;19.92;;;8.80;99.90;;;;;;4912600;29;20032;-74
2022/03/01 12:06:55;;;;;;;34.95;20.80;;;8.80;99.90;;;;;;4912865;29;20032;-75
2022/03/01 12:09:25;;;;;;;38.28;21.10;;;8.80;99.90;;;;;;4912538;29;20083;-75
2022/03/01 12:12:02;;;;;;;34.15;20.10;;;8.80;99.90;;;;;;4913129;29;20036;-74
2022/03/01 12:14:29;;;;;;;37.03;21.35;;;8.80;99.90;;;;;;4915243;29;20115;-74
2022/03/01 12:16:55;;;;;;;35.45;20.65;;;8.80;99.90;;;;;;4912241;29;20038;-75
2022/03/01 12:19:23;;;;;;;37.13;21.38;;;8.80;99.90;;;;;;4919994;29;20031;-75
2022/03/01 12:21:53;;;;;;;38.97;21.08;;;8.90;99.90;;;;;;4910717;29;20017;-74
2022/03/01 12:24:20;;;;;;;36.35;21.20;;;8.90;99.90;;;;;;4912607;29;20107;-74
2022/03/01 12:27:13;;;;;;;36.65;21.15;;;8.90;99.90;;;;;;4915841;29;20115;-74
2022/03/01 12:29:40;;;;;;;39.60;21.70;;;8.90;99.90;;;;;;4914451;29;20063;-74
2022/03/01 12:32:10;;;;;;;37.53;21.70;;;8.90;99.90;;;;;;4913469;29;20486;-74
2022/03/01 12:34:37;;;;;;;37.67;20.88;;;8.90;99.90;;;;;;4909451;29;20028;-74
2022/03/01 12:37:08;;;;;;;35.17;20.98;;;8.90;99.90;;;;;;4909244;29;20028;-74